Neuquen, Argentina

3:13 AM -03 on March 24, 2017 (GMT -0300)
Presidente Peron | | Change Station

Elev 889 ft 38.95 °S, 68.13 °W | Updated 1 hour ago

Clear
Clear
61 °F
Feels Like 61 °F
N
0
Wind Variable Wind from North

Today
High -- | Low -- °F
--% Chance of Precip.
Yesterday
High -- | Low -- °F
Precip. -- in
Pressure 29.86 in
Visibility -9999.0 miles
Clouds
Dew Point 59 °F
Humidity 94%
Rainfall 0.00 in
Snow Depth Not available.
7:39 AM 7:37 PM
Waning Crescent, 17% visible
METAR SAZN 240500Z 00000KT CAVOK 16/15 Q1011
Pressure 29.86 in
Visibility -9999.0 miles
Clouds
Dew Point 59 °F
Humidity 94%
Rainfall 0.00 in
Snow Depth Not available.
7:39 AM 7:37 PM
Waning Crescent, 17% visible
METAR SAZN 240500Z 00000KT CAVOK 16/15 Q1011

Get Severe Weather Alerts

Thanks for signing up!

Be on the lookout for a verification email in your inbox.

You'll start receiving the daily forecast at 8 AM.

×

10-Day Weather Forecast

Almanac

Astronomy

Mar. 24, 2017 Rise Set
Actual Time
Civil Twilight
Nautical Twilight
Astronomical Twilight
Moon
Length of Visible Light
Length of Day
Tomorrow will be .
, % of the Moon is Illuminated

Today's Extremes

Country Highs Country Lows

Community

WunderPhotos

Upload Photos

1,962,540 photos uploaded!

WunderBlog® & News

Nearby

Air Quality

  Air Quality AQ Index Pollutant
Not available.

Snow Depth

Station Depth Elevation

Earthquake Activity

City Distance Mag. Time & Date
Minimum magnitude displayed is 2.5.

Earthquake Activity

City Distance Mag. Time & Date
Minimum magnitude displayed is 2.5.

Coastal Water Temperatures

Place Temperature

Stations

Nearby Weather Stations

Station Location Temp. Windchill Dew Point Humidity Wind Precip. Elev Updated Type